الصفحة الرئيسية
METAR-TAF:

METAR-TAF

مطار :

Cesária Évora

São Vicente, الرأس الأخضر

دائرة عرض: 16-49-59N, خط طول: 25-03-25W, ارتفاع: 20 متر

مراقبة الطقس الحالي

تاريخ ووقت الإصدار 51 دقيقة قبل الساعة 01:00UTC
ريح 11 عقدة من الشرق/الشمال الشرقي
درجة الحرارة 26°درجة مئوية
الرطوبة 79%
ضغط 1017 hPa
الرؤية 10 كم أو أكثر
غيوم قليلة على ارتفاع 2000 قدم

METAR: GVSV 170100Z 06011KT 9999 FEW020 26/22 Q1017 NOSIG

زمن: 00:51 (01:51 UTC)

توقعات

تاريخ ووقت الإصدار 2ساعات و 51 دقيقة قبل الساعة 23:00UTC
التوقعات صالحة من17 الساعة 00 UTC إلى 18 الساعة 06 UTC
ريح 15 عقدة من الشرق/الشمال الشرقي
الرؤية 10 كم أو أكثر
غيوم متفرقة على ارتفاع 2000 قدم
نظرية الاحتمالات 40% :
مؤقت
من 17 الساعة 14 UTC إلى 17 الساعة 18 UTC
ريح 15 عقدة من الشرق/الشمال الشرقي تتزايد حتى 25 عقدة

TAF: GVSV 162300Z 1700/1806 07015KT 9999 SCT020 PROB40 TEMPO 1714/1718 07015G25KT

أرصاد الطقس والتوقعات من أكثر من 4000 مطار (تقارير الطقس للمطار METAR والتنبؤ بالطقس بالمطارTAF).

المحطات المتاحة هي النقط الصفراء والحمراء على الخريطة.

حرك المؤشر فوق النقطة لمعرفة اسم المحطة.

ثم انقر لمعرفة أرصاد وتوقعات الطقس.

لتغيير الخارطة: اضغط على الأزرار الخضراء مع رمز الصليب الأسود للتكبير. على الزر الأخضر مع شرطة للتصغير، أو على الأسهم الخضراء للخرائط المجاورة.


METAR-TAF: